Barbados Meteorological Services
Auto gathered TAF list
Powered by Apparatus software
For Flight AA2725
Contact Number 1-(246)-535-0021/2/3/4/5/6
WEB: http://www.barbadosweather.org

**********************************************

2019/01/22 06:57
TAF TLPL 220455Z 2206/2306 08018KT 9999 SCT025
TEMPO 2206/2306 SHRA


**********************************************
2019/01/22 06:34
TAF TJSJ 220531Z 2206/2306 07006KT P6SM FEW025 SCT060
FM221400 10010KT P6SM VCSH SCT025 SCT050
FM222200 07014KT P6SM SCT030


**********************************************
2019/01/22 06:25
TAF TFFR 220400Z 2206/2306 CNL


**********************************************
2019/01/22 06:03
TAF TBPB 220500Z 2206/2306 08015KT 9999 SCT018 PROB30
TEMPO 2206/2212 SHRA BKN014 SCT036


**********************************************
2019/01/22 06:07
TAF TAPA 220500Z 2206/2306 09012KT 9999 SCT020


**********************************************
2019/01/22 06:16
TAF MYNN 220500Z 2206/2306 07010G20KT 9999 SCT030 BKN050


**********************************************
2019/01/21 18:58
TAF MTPP 211700Z 2118/2218 29010KT 9999 FEW026 PROB30
TEMPO 2200/2205 4500 -TSRA FEW022CB BKN040
FM220600 VRB02KT 9000 NSW FEW022
TEMPO 2212/2218 07012KT


**********************************************
2019/01/22 06:25
TAF MDSD 220400Z 2206/2306 04004KT 9999 SCT016 PROB30 2216/2222 8000- RA BKN016
BECMG 2216/2218 12010KT


**********************************************
2019/01/22 06:40
TAF KSFB 220538Z 2206/2306 32004KT P6SM FEW035 BKN250
FM221400 08012KT P6SM SCT040 BKN120
FM221800 10012G18KT P6SM SCT040 BKN100
FM230100 11006KT P6SM BKN100


**********************************************
2019/01/22 09:40
TAF
AMD KPHL 220838Z 2209/2312 31010KT P6SM SKC
FM221800 26004KT P6SM SCT200
FM222100 22004KT P6SM BKN200
FM230000 18005KT P6SM BKN200


**********************************************
2019/01/22 09:18
TAF
AMD KPBI 220911Z 2209/2306 09012KT P6SM SCT050
FM221400 09015KT P6SM SCT040


**********************************************
2019/01/22 09:12
TAF
AMD KOPF 220911Z 2209/2306 08010KT P6SM BKN050
FM221400 10015KT P6SM SCT040


**********************************************


**********************************************
2019/01/22 09:12
TAF
AMD KMIA 220911Z 2209/2312 08010KT P6SM BKN045 BKN060
FM221400 09015KT P6SM SCT040


**********************************************
2019/01/22 10:36
TAF
AMD KMCO 220933Z 2210/2312 35004KT P6SM SCT035 SCT250
FM221400 05012KT P6SM SCT040 BKN120
FM221800 09012G18KT P6SM SCT040 BKN100
FM230100 10006KT P6SM BKN100


**********************************************
2019/01/22 09:40
TAF
AMD KJFK 220832Z 2209/2312 31016KT P6SM SKC
FM221500 30011KT P6SM SKC
FM221900 27008KT P6SM SKC
FM222000 25008KT P6SM FEW250
FM222200 VRB04KT P6SM SCT250
FM230700 22007KT P6SM SCT250


**********************************************
2019/01/22 06:22
TAF KJAX 220520Z 2206/2306 03004KT P6SM SCT025 BKN250
TEMPO 2210/2214 BKN025
FM221400 07014G21KT P6SM BKN025
FM222300 09009KT P6SM BKN020


**********************************************
2019/01/22 09:18
TAF
AMD KFLL 220911Z 2209/2312 08015KT P6SM BKN050
FM221400 09015G25KT P6SM SCT040


**********************************************
2019/01/22 09:36
TAF
AMD KEWR 220832Z 2209/2312 30012KT P6SM SKC
FM221300 31008KT P6SM SKC
FM221700 29007KT P6SM SKC
FM222200 VRB04KT P6SM SCT250


**********************************************
2019/01/22 06:57
TAF COR KCLT 220557Z 2206/2312 08003KT P6SM BKN250
FM221600 10005KT P6SM SCT250
FM222300 12004KT P6SM FEW050
FM230400 11003KT P6SM OVC030
FM230800 06003KT 6SM BR BKN010 OVC018 PROB30 2308/2312 4SM -RA OVC007


**********************************************
2019/01/22 08:18
TAF
AMD KATL 220815Z 2208/2312 11006KT P6SM BKN250
FM221200 10010G16KT P6SM BKN250
FM221500 10012G20KT P6SM SCT040 BKN250
FM222000 11012G18KT P6SM BKN035
FM230100 11011G15KT P6SM OVC025 PROB30 2301/2305 4SM -RA OVC015
FM230500 10011KT P6SM -RA OVC008


**********************************************